Time;durP1;ratioP1;P1;durP2;ratioP2;P2;SDS_P1;SDS_P2;PMS_P1;PMS_P2;Temp;Humidity;BMP_temperature;BMP_pressure;BME280_temperature;BME280_humidity;BME280_pressure;Samples;Min_cycle;Max_cycle;Signal;HPM_P1;HPM_P2
2022/12/27 00:02:16;;;;;;;32.25;3.33;;;3.60;99.90;;;1.97;100.00;100953.38;4955561;28;20576;-80
2022/12/27 00:04:42;;;;;;;29.50;2.65;;;3.70;99.90;;;1.97;100.00;100963.78;4986065;28;20049;-81
2022/12/27 00:07:12;;;;;;;30.40;3.50;;;3.60;99.90;;;1.96;100.00;100962.03;4968336;28;20031;-82
2022/12/27 00:09:38;;;;;;;18.52;2.35;;;3.60;99.90;;;1.95;100.00;100965.50;4969947;28;20066;-81
2022/12/27 00:12:04;;;;;;;29.52;3.15;;;3.60;99.90;;;1.93;100.00;100962.91;4957544;28;20580;-81
2022/12/27 00:14:30;;;;;;;31.23;3.20;;;3.60;99.90;;;1.93;100.00;100960.31;4950035;28;20030;-81
2022/12/27 00:16:56;;;;;;;24.77;2.80;;;3.60;99.90;;;1.91;100.00;100958.63;4965164;28;20081;-81
2022/12/27 00:19:22;;;;;;;30.35;2.95;;;3.60;99.90;;;1.87;100.00;100957.75;4967175;28;20039;-81
2022/12/27 00:21:52;;;;;;;23.10;2.65;;;3.60;99.90;;;1.88;100.00;100958.63;4983614;28;20041;-81
2022/12/27 00:24:18;;;;;;;33.55;2.65;;;3.60;99.90;;;1.88;100.00;100959.50;4949638;28;20053;-80
2022/12/27 00:26:44;;;;;;;27.38;2.60;;;3.50;99.90;;;1.84;100.00;100955.19;4949523;28;20023;-80
2022/12/27 00:29:10;;;;;;;25.50;2.80;;;3.50;99.90;;;1.85;100.00;100962.09;4968427;28;20108;-81
2022/12/27 00:31:36;;;;;;;36.10;3.40;;;3.50;99.90;;;1.82;100.00;100960.41;4966871;28;20069;-80
2022/12/27 00:34:07;;;;;;;26.73;2.95;;;3.50;99.90;;;1.81;100.00;100963.88;4967523;28;20038;-81
2022/12/27 00:36:34;;;;;;;29.67;3.00;;;3.50;99.90;;;1.80;100.00;100963.88;4969079;28;20134;-80
2022/12/27 00:39:00;;;;;;;27.42;2.83;;;3.50;99.90;;;1.79;100.00;100967.34;4967510;28;20034;-81
2022/12/27 00:41:26;;;;;;;33.80;2.80;;;3.50;99.90;;;1.76;100.00;100970.81;4965705;28;20049;-81
2022/12/27 00:43:53;;;;;;;24.48;2.90;;;3.50;99.90;;;1.77;100.00;100969.06;4968934;28;20034;-81
2022/12/27 00:46:26;;;;;;;22.23;2.88;;;3.50;99.90;;;1.77;100.00;100982.94;4958026;28;20036;-81
2022/12/27 00:48:52;;;;;;;33.28;2.60;;;3.50;99.90;;;1.77;100.00;100988.13;4967504;28;20503;-81
2022/12/27 00:51:22;;;;;;;20.95;2.60;;;3.50;99.90;;;1.74;100.00;100977.75;4969490;28;20037;-81
2022/12/27 00:53:52;;;;;;;26.60;2.83;;;3.40;99.90;;;1.74;100.00;100982.09;4962004;28;20057;-82
2022/12/27 00:56:25;;;;;;;36.05;3.10;;;3.40;99.90;;;1.74;100.00;100982.94;4967967;28;20022;-81
2022/12/27 00:58:57;;;;;;;32.88;3.58;;;3.40;99.90;;;1.70;100.00;100993.38;4983215;28;20466;-81
2022/12/27 01:01:26;;;;;;;25.05;2.55;;;3.40;99.90;;;1.68;100.00;100993.38;4965254;28;20145;-82
2022/12/27 01:03:52;;;;;;;28.42;4.22;;;3.40;99.90;;;1.66;100.00;100984.72;4952204;28;20447;-80
2022/12/27 01:06:24;;;;;;;21.73;2.50;;;3.40;99.90;;;1.64;100.00;101004.63;4967054;28;20042;-82
2022/12/27 01:08:51;;;;;;;28.38;3.97;;;3.30;99.90;;;1.61;100.00;101002.91;4967424;28;20437;-80
2022/12/27 01:11:18;;;;;;;29.73;2.97;;;3.30;99.90;;;1.58;100.00;101002.09;4966798;28;20018;-82
2022/12/27 01:13:44;;;;;;;29.38;3.00;;;3.30;99.90;;;1.54;100.00;101005.56;4968571;28;20562;-82
2022/12/27 01:16:17;;;;;;;33.90;4.00;;;3.20;99.90;;;1.51;100.00;101005.56;4967571;28;20026;-82
2022/12/27 01:18:44;;;;;;;24.60;2.72;;;3.20;99.90;;;1.47;100.00;101004.75;4969692;28;20107;-79
2022/12/27 01:21:13;;;;;;;28.42;2.97;;;3.20;99.90;;;1.45;100.00;101001.28;4955517;28;20061;-81
2022/12/27 01:23:45;;;;;;;29.05;2.85;;;3.20;99.90;;;1.42;100.00;101007.31;4970516;28;20031;-82
2022/12/27 01:26:18;;;;;;;27.33;2.67;;;3.20;99.90;;;1.44;100.00;101020.31;4971358;28;20030;-80
2022/12/27 01:28:50;;;;;;;26.02;2.60;;;3.20;99.90;;;1.42;100.00;101011.66;4952672;28;20065;-81
2022/12/27 01:31:28;;;;;;;22.92;2.22;;;3.20;99.90;;;1.41;100.00;101016.00;4967801;28;20068;-82
2022/12/27 01:33:57;;;;;;;26.10;3.38;;;3.20;99.90;;;1.40;100.00;101018.59;4971142;28;20038;-81
2022/12/27 01:36:24;;;;;;;22.35;2.63;;;3.10;99.90;;;1.39;100.00;101017.75;4969549;28;20043;-81
2022/12/27 01:38:56;;;;;;;18.27;2.28;;;3.20;99.90;;;1.40;100.00;101023.78;4969184;28;20490;-81
2022/12/27 01:44:42;;;;;;;25.20;2.47;;;3.10;99.90;;;1.35;100.00;101021.22;4975358;28;20084;-80
2022/12/27 01:47:41;;;;;;;41.00;3.13;;;3.10;99.90;;;1.33;100.00;101022.94;4986753;28;20398;-82
2022/12/27 01:50:25;;;;;;;34.33;3.58;;;3.10;99.90;;;1.31;100.00;101022.09;4985482;28;20038;-81
2022/12/27 01:53:13;;;;;;;24.70;2.97;;;3.10;99.90;;;1.32;100.00;101031.63;4983192;28;20038;-81
2022/12/27 01:56:04;;;;;;;28.42;2.90;;;3.10;99.90;;;1.30;100.00;101028.16;4969397;28;20052;-81
2022/12/27 01:59:00;;;;;;;29.67;3.17;;;3.00;99.90;;;1.26;100.00;101023.84;4986541;28;20641;-82
2022/12/27 02:01:36;;;;;;;26.55;2.40;;;3.00;99.90;;;1.25;100.00;101024.69;4968353;28;20039;-81
2022/12/27 02:04:13;;;;;;;;;;;3.00;99.90;;;1.18;100.00;101028.19;4969789;28;20031;-80
2022/12/27 02:06:42;;;;;;;29.85;2.65;;;3.00;99.90;;;1.19;100.00;101037.72;4968658;28;19918;-82
2022/12/27 02:09:37;;;;;;;21.45;2.38;;;2.90;99.90;;;1.21;100.00;101043.75;4970163;28;20030;-80
2022/12/27 02:12:06;;;;;;;26.52;2.45;;;2.90;99.90;;;1.19;100.00;101046.34;4965644;28;20047;-81
2022/12/27 02:14:33;;;;;;;28.00;2.88;;;2.90;99.90;;;1.19;100.00;101050.69;4952517;28;20034;-80
2022/12/27 02:17:08;;;;;;;26.92;2.88;;;2.90;99.90;;;1.19;100.00;101040.31;4967174;28;20034;-81
2022/12/27 02:19:52;;;;;;;36.10;3.85;;;2.90;99.90;;;1.20;100.00;101042.03;4970568;28;20030;-81
2022/12/27 02:25:52;;;;;;;29.17;3.50;;;2.90;99.90;;;1.17;100.00;101045.50;4984561;28;20049;-82
2022/12/27 02:28:48;;;;;;;29.52;2.72;;;2.90;99.90;;;1.16;100.00;101046.34;4951242;28;20018;-81
2022/12/27 02:31:28;;;;;;;24.48;2.60;;;2.90;99.90;;;1.18;100.00;101051.53;4969579;28;20069;-80
2022/12/27 02:33:58;;;;;;;27.27;3.17;;;2.90;99.90;;;1.18;100.00;101051.53;4971188;28;20053;-79
2022/12/27 02:36:37;;;;;;;30.15;2.97;;;2.90;99.90;;;1.19;100.00;101046.34;4952917;28;20038;-81
2022/12/27 02:39:05;;;;;;;20.88;2.83;;;2.90;99.90;;;1.21;100.00;101057.59;4985923;28;20076;-81
2022/12/27 02:53:38;;;;;;;27.20;3.28;;;3.00;99.90;;;1.18;100.00;101067.09;4942963;28;20038;-81
2022/12/27 02:59:16;;;;;;;30.05;4.05;;;2.90;99.90;;;1.19;100.00;101074.88;4968746;28;20053;-80
2022/12/27 03:05:22;;;;;;;29.00;3.15;;;2.90;99.90;;;1.14;100.00;101083.53;4999183;23;20111;-80
2022/12/27 03:08:22;;;;;;;25.58;3.53;;;2.90;99.90;;;1.18;100.00;101085.25;5001227;28;20113;-82
2022/12/27 03:16:56;;;;;;;22.17;2.42;;;2.90;99.90;;;1.14;100.00;101066.22;4970376;28;20069;-82
2022/12/27 03:25:33;;;;;;;40.83;2.88;;;2.90;99.90;;;1.14;100.00;101065.38;4997238;23;20080;-81
2022/12/27 03:34:30;;;;;;;22.02;2.30;;;2.80;99.90;;;1.10;100.00;101069.72;4990933;28;20052;-82
2022/12/27 03:40:00;;;;;;;21.90;3.28;;;2.80;99.90;;;1.11;100.00;101062.81;4970576;28;20037;-82
2022/12/27 03:45:20;;;;;;;24.08;2.35;;;2.90;99.90;;;1.11;100.00;101068.84;4976278;28;20037;-81
2022/12/27 03:48:02;;;;;;;19.02;3.35;;;2.90;99.90;;;1.14;100.00;101058.44;4964885;28;20026;-82
2022/12/27 03:50:39;;;;;;;19.60;2.88;;;2.90;99.90;;;1.12;100.00;101069.69;4966055;28;20031;-82
2022/12/27 03:53:36;;;;;;;23.48;2.80;;;2.90;99.90;;;1.12;100.00;101073.16;4973018;28;20038;-82
2022/12/27 03:56:04;;;;;;;28.45;3.00;;;2.90;99.90;;;1.11;100.00;101068.84;4966733;28;20070;-82
2022/12/27 03:58:30;;;;;;;25.77;2.85;;;2.90;99.90;;;1.12;100.00;101072.28;4966898;28;20109;-82
2022/12/27 04:00:56;;;;;;;14.70;2.20;;;2.80;99.90;;;1.14;100.00;101073.16;4964675;28;20038;-82
2022/12/27 04:03:22;;;;;;;20.25;2.40;;;2.90;99.90;;;1.15;100.00;101070.56;4956743;28;20034;-81
2022/12/27 04:05:52;;;;;;;22.25;2.90;;;2.90;99.90;;;1.18;100.00;101061.91;4972846;28;20037;-82
2022/12/27 04:36:14;;;;;;;;;;;;;;;;;;;;;
2022/12/27 04:39:02;;;;;;;16.50;2.20;;;;;;;1.53;100.00;101076.50;4965423;28;20026;-81
2022/12/27 04:58:12;;;;;;;18.88;2.15;;;3.30;99.90;;;1.52;100.00;101087.75;4965213;28;20416;-82
2022/12/27 05:04:24;;;;;;;20.80;2.75;;;3.20;99.90;;;1.41;100.00;101083.47;4951718;28;20096;-81
2022/12/27 05:17:23;;;;;;;17.27;2.85;;;3.10;99.90;;;1.30;100.00;101094.75;4849644;29;20072;-82
2022/12/27 05:19:54;;;;;;;23.63;2.45;;;3.10;99.90;;;1.29;100.00;101095.59;4809605;29;20061;-82
2022/12/27 05:28:02;;;;;;;20.90;3.10;;;3.00;99.90;;;1.30;100.00;101099.94;4951840;28;20046;-80
2022/12/27 05:30:28;;;;;;;17.90;3.20;;;3.10;99.90;;;1.34;100.00;101097.34;4949040;28;20042;-82
2022/12/27 05:32:55;;;;;;;20.58;3.05;;;3.10;99.90;;;1.44;100.00;101099.00;4947682;28;20106;-81
2022/12/27 05:35:21;;;;;;;18.55;3.15;;;3.20;99.90;;;1.53;100.00;101108.50;4946810;28;20051;-82
2022/12/27 05:37:56;;;;;;;15.75;3.25;;;3.20;99.90;;;1.59;100.00;101103.28;4948528;28;20503;-82
2022/12/27 05:40:24;;;;;;;20.40;3.60;;;;;;;1.68;100.00;101110.19;4933758;28;20035;-81
2022/12/27 05:42:53;;;;;;;16.17;2.58;;;3.40;99.90;;;1.76;100.00;101120.53;4947257;28;20118;-82
2022/12/27 05:45:21;;;;;;;23.77;3.22;;;3.40;99.90;;;1.79;100.00;101111.03;4932875;28;20427;-80
2022/12/27 05:47:47;;;;;;;20.05;3.88;;;3.50;99.90;;;1.85;100.00;101121.34;4950819;28;20042;-82
2022/12/27 05:50:13;;;;;;;16.58;3.08;;;3.50;99.90;;;1.93;100.00;101128.28;4955300;28;20090;-81
2022/12/27 05:52:39;;;;;;;13.00;3.45;;;3.60;99.90;;;1.95;100.00;101122.19;4932054;28;20114;-81
2022/12/27 05:55:06;;;;;;;16.85;3.55;;;3.60;99.90;;;2.00;100.00;101129.97;4932569;28;20027;-80
2022/12/27 05:57:37;;;;;;;17.60;3.53;;;3.70;99.90;;;2.01;100.00;101119.56;4934411;28;20099;-82
2022/12/27 06:00:07;;;;;;;11.98;2.95;;;3.70;99.90;;;2.03;100.00;101103.97;4951490;28;20035;-81
2022/12/27 06:02:33;;;;;;;15.82;3.40;;;3.70;99.90;;;2.05;100.00;101113.50;4962680;28;20468;-81
2022/12/27 06:05:09;;;;;;;15.95;3.58;;;3.80;99.90;;;2.09;100.00;101116.06;4965009;28;20086;-82
2022/12/27 06:07:37;;;;;;;22.38;3.50;;;3.80;99.90;;;2.15;100.00;101116.03;4948867;28;20027;-81
2022/12/27 06:10:10;;;;;;;20.50;4.78;;;3.80;99.90;;;2.16;100.00;101115.16;4949846;28;20043;-80
2022/12/27 06:12:36;;;;;;;16.25;3.47;;;3.80;99.90;;;2.20;100.00;101114.25;4946355;28;20031;-81
2022/12/27 06:15:04;;;;;;;22.05;3.33;;;3.80;99.90;;;2.19;100.00;101109.94;4948685;28;20123;-82
2022/12/27 06:17:30;;;;;;;27.27;4.10;;;3.90;99.90;;;2.22;100.00;101113.38;4963757;28;20149;-82
2022/12/27 06:20:01;;;;;;;16.35;4.05;;;3.90;99.90;;;2.15;100.00;101113.44;4949523;28;20090;-82
2022/12/27 06:22:27;;;;;;;11.98;3.38;;;3.90;99.90;;;2.19;100.00;101117.75;4934412;28;20086;-81
2022/12/27 06:24:53;;;;;;;26.63;4.18;;;3.90;99.90;;;2.15;100.00;101111.69;4946961;28;20031;-81
2022/12/27 06:27:19;;;;;;;17.67;3.80;;;3.90;99.90;;;2.13;100.00;101112.56;4963044;28;20039;-81
2022/12/27 06:29:45;;;;;;;19.70;4.47;;;3.90;99.90;;;2.12;100.00;101118.66;4934767;28;20110;-80
2022/12/27 06:32:20;;;;;;;16.85;4.15;;;3.80;99.90;;;2.05;100.00;101121.28;4947644;28;20043;-81
2022/12/27 06:34:45;;;;;;;19.60;4.10;;;3.80;99.90;;;2.05;100.00;101128.19;4932435;28;20118;-80
2022/12/27 06:37:11;;;;;;;21.20;4.68;;;3.70;99.90;;;2.00;100.00;101125.63;4963897;28;20602;-82
2022/12/27 06:39:37;;;;;;;22.08;4.57;;;3.70;99.90;;;2.00;100.00;101137.75;4964779;28;20104;-82
2022/12/27 06:42:10;;;;;;;22.83;3.60;;;3.70;99.90;;;1.97;100.00;101130.00;4948391;28;20073;-81
2022/12/27 06:44:35;;;;;;;18.90;3.85;;;3.70;99.90;;;2.01;100.00;101137.75;4948107;28;20031;-81
2022/12/27 06:47:02;;;;;;;18.50;3.85;;;3.70;99.90;;;2.06;100.00;101140.31;4948578;28;20057;-81
2022/12/27 06:49:28;;;;;;;16.23;3.60;;;3.80;99.90;;;2.14;100.00;101146.34;4931240;28;20504;-82
2022/12/27 06:51:54;;;;;;;18.75;4.03;;;3.80;99.90;;;2.19;100.00;101141.97;4945197;28;20058;-81
2022/12/27 06:54:28;;;;;;;19.52;4.45;;;3.90;99.90;;;2.24;100.00;101155.81;4950827;28;20046;-81
2022/12/27 06:56:55;;;;;;;18.02;3.95;;;3.90;99.90;;;2.24;100.00;101157.53;4946495;28;20051;-81
2022/12/27 06:59:22;;;;;;;14.55;3.58;;;4.00;99.90;;;2.34;100.00;101160.97;4947175;28;20020;-81
2022/12/27 07:02:24;;;;;;;20.92;4.13;;;4.00;99.90;;;2.37;100.00;101161.78;4945069;28;20047;-80
2022/12/27 07:04:50;;;;;;;19.45;3.60;;;4.00;99.90;;;2.39;100.00;101169.59;4949570;28;20042;-81
2022/12/27 07:10:33;;;;;;;17.02;3.88;;;4.00;99.90;;;2.37;100.00;101160.94;4942629;28;20396;-81
2022/12/27 07:13:04;;;;;;;16.20;3.50;;;4.10;99.90;;;2.36;100.00;101152.28;4963899;28;20117;-81
2022/12/27 07:15:33;;;;;;;19.67;3.78;;;4.10;99.90;;;2.44;100.00;101166.09;4945324;28;20035;-82
2022/12/27 07:18:13;;;;;;;18.50;4.55;;;4.10;99.90;;;2.43;100.00;101158.31;4947513;28;20127;-82
2022/12/27 07:20:41;;;;;;;20.35;3.78;;;4.10;99.90;;;2.45;100.00;101156.56;4947870;28;20030;-81
2022/12/27 07:23:26;;;;;;;;;;;;;;;;;;;;;
2022/12/27 07:27:12;;;;;;;14.75;3.75;;;;;;;2.53;100.00;101157.38;4946980;28;20033;-81
2022/12/27 07:29:25;;;;;;;12.05;3.33;;;4.20;99.90;;;2.54;100.00;101166.91;4956307;28;20575;-81
2022/12/27 07:33:04;;;;;;;17.23;3.47;;;4.20;99.90;;;2.53;100.00;101165.19;4944687;28;20062;-82
2022/12/27 07:35:44;;;;;;;11.82;2.90;;;4.20;99.90;;;2.51;100.00;101158.28;4932341;28;20042;-81
2022/12/27 07:38:33;;;;;;;15.73;3.60;;;4.20;99.90;;;2.51;100.00;101169.53;4964665;28;20031;-82
2022/12/27 07:41:12;;;;;;;15.68;3.72;;;;;;;2.54;100.00;101173.84;4945382;28;20042;-81
2022/12/27 07:44:02;;;;;;;12.70;3.33;;;;;;;2.56;100.00;101177.28;4964529;28;20041;-81
2022/12/27 07:46:45;;;;;;;18.42;3.85;;;4.20;99.90;;;2.57;100.00;101169.50;4964610;28;20046;-80
2022/12/27 07:49:14;;;;;;;18.58;4.93;;;;;;;2.60;100.00;101179.84;4963083;28;20030;-81
2022/12/27 07:51:52;;;;;;;16.95;4.28;;;;;;;2.64;100.00;101180.72;4959174;28;20499;-81
2022/12/27 07:55:02;;;;;;;12.43;4.40;;;4.30;99.90;;;2.70;100.00;101192.78;4962072;28;20057;-82
2022/12/27 07:57:42;;;;;;;12.77;3.97;;;4.40;99.90;;;2.76;100.00;101203.16;4963471;28;20086;-81
2022/12/27 08:00:33;;;;;;;13.90;3.97;;;4.40;99.90;;;2.73;100.00;101198.84;4944891;28;20039;-81
2022/12/27 08:03:05;;;;;;;22.20;4.13;;;4.40;99.90;;;2.75;100.00;101204.03;4945677;28;20031;-80
2022/12/27 08:05:33;;;;;;;24.70;4.25;;;4.40;99.90;;;2.79;100.00;101208.34;4945036;28;20404;-81
2022/12/27 08:08:01;;;;;;;13.40;3.75;;;4.40;99.90;;;2.81;100.00;101201.41;4929032;28;20031;-80
2022/12/27 08:10:27;;;;;;;18.38;3.70;;;4.50;99.90;;;2.82;100.00;101200.53;4930503;28;20027;-81
2022/12/27 08:12:53;;;;;;;15.88;4.20;;;4.50;99.90;;;2.88;100.00;101197.88;4962818;28;20157;-80
2022/12/27 08:15:54;;;;;;;13.35;3.85;;;4.50;99.90;;;2.90;100.00;101203.94;4945639;28;20043;-81
2022/12/27 08:18:33;;;;;;;12.48;3.35;;;4.60;99.90;;;2.94;100.00;101205.63;4948071;28;20039;-80
2022/12/27 08:21:14;;;;;;;14.05;3.63;;;;;;;2.98;100.00;101207.34;4947116;28;20083;-81
2022/12/27 08:23:47;;;;;;;13.73;3.03;;;4.60;99.90;;;3.00;100.00;101195.19;4950256;28;20427;-81
2022/12/27 08:26:13;;;;;;;10.23;3.50;;;4.70;99.90;;;3.12;100.00;101209.84;4962790;28;20031;-81
2022/12/27 08:28:39;;;;;;;16.15;3.88;;;4.80;99.90;;;3.17;100.00;101207.19;4929696;28;20121;-81
2022/12/27 08:31:11;;;;;;;16.17;4.13;;;4.80;99.90;;;3.22;100.00;101206.28;4947900;28;20058;-81
2022/12/27 08:33:40;;;;;;;16.13;3.50;;;4.80;99.90;;;3.25;100.00;101213.19;4945092;28;20027;-81
2022/12/27 08:36:09;;;;;;;9.82;3.50;;;4.90;99.90;;;3.31;100.00;101220.97;4928823;28;20031;-80
2022/12/27 08:38:40;;;;;;;13.88;3.08;;;4.90;99.90;;;3.28;100.00;101218.34;4946928;28;20035;-80
2022/12/27 08:41:06;;;;;;;12.85;3.40;;;4.90;99.90;;;3.30;100.00;101224.41;4946161;28;20090;-81
2022/12/27 08:43:32;;;;;;;16.92;3.80;;;4.90;99.90;;;3.21;100.00;101229.72;4943705;28;20030;-80
2022/12/27 08:46:08;;;;;;;9.57;3.38;;;4.90;99.90;;;3.23;100.00;101234.03;4944230;28;20031;-80
2022/12/27 08:48:36;;;;;;;9.77;3.67;;;4.90;99.90;;;3.22;100.00;101240.13;4963467;28;20078;-83
2022/12/27 08:51:06;;;;;;;12.43;3.50;;;4.90;99.90;;;3.23;100.00;101249.63;4946500;28;20532;-82
2022/12/27 08:53:37;;;;;;;16.52;4.15;;;4.90;99.90;;;3.28;100.00;101247.00;4944906;28;20440;-82
2022/12/27 08:56:03;;;;;;;9.77;3.03;;;4.90;99.90;;;3.29;100.00;101251.34;4961405;28;20030;-81
2022/12/27 08:58:29;;;;;;;9.73;4.20;;;4.90;99.90;;;3.35;100.00;101253.00;4947281;28;20122;-84
2022/12/27 09:00:55;;;;;;;17.92;3.70;;;4.90;99.90;;;3.38;100.00;101259.06;4929536;28;20039;-80
2022/12/27 09:03:24;;;;;;;13.02;3.63;;;5.00;99.90;;;3.42;100.00;101265.97;4960667;28;20155;-81
2022/12/27 09:05:55;;;;;;;9.00;2.95;;;5.00;99.90;;;3.47;100.00;101269.38;4947091;28;20101;-80
2022/12/27 09:08:23;;;;;;;12.70;2.80;;;5.00;99.90;;;3.46;100.00;101274.63;4944916;28;20035;-81
2022/12/27 09:10:55;;;;;;;11.70;2.80;;;5.00;99.90;;;3.49;100.00;101291.06;4944038;28;20043;-80
2022/12/27 09:13:21;;;;;;;12.05;2.80;;;5.10;99.90;;;3.49;100.00;101293.69;4942882;28;20520;-82
2022/12/27 09:15:49;;;;;;;9.77;3.33;;;5.10;99.90;;;3.48;100.00;101286.75;4944829;28;20094;-81
2022/12/27 09:18:18;;;;;;;11.35;2.95;;;5.10;99.90;;;3.51;100.00;101290.22;4947115;28;20078;-80
2022/12/27 09:20:51;;;;;;;9.43;2.75;;;5.10;99.90;;;3.61;100.00;101305.75;4945355;28;20046;-80
2022/12/27 09:23:20;;;;;;;15.15;3.20;;;5.20;99.90;;;3.62;100.00;101310.06;4956153;28;20059;-81
2022/12/27 09:25:46;;;;;;;11.02;2.72;;;5.20;99.90;;;3.64;100.00;101313.50;4942512;28;20047;-80
2022/12/27 09:28:19;;;;;;;16.60;2.92;;;5.20;99.90;;;3.60;100.00;101308.34;4930297;28;20034;-80
2022/12/27 09:31:03;;;;;;;12.80;2.90;;;5.20;99.90;;;3.69;100.00;101330.00;4946515;28;20565;-81
2022/12/27 09:36:54;;;;;;;8.98;2.60;;;5.20;99.90;;;3.63;100.00;101326.56;4868306;29;20781;-80
2022/12/27 09:39:20;;;;;;;10.70;2.63;;;5.20;99.90;;;3.67;100.00;101330.84;4943856;28;20130;-81
2022/12/27 09:42:10;;;;;;;13.18;3.20;;;5.20;99.90;;;3.72;100.00;101329.09;4946352;28;20050;-80
2022/12/27 09:45:08;;;;;;;11.88;2.75;;;5.20;99.90;;;3.68;100.00;101340.41;4963056;28;20444;-80
2022/12/27 09:47:46;;;;;;;8.95;2.42;;;5.30;99.90;;;3.65;100.00;101336.09;4949239;28;20031;-80
2022/12/27 09:50:32;;;;;;;8.02;2.67;;;5.30;99.90;;;3.69;100.00;101348.22;4965163;28;20054;-81
2022/12/27 09:53:16;;;;;;;13.65;2.65;;;5.30;99.90;;;3.71;100.00;101353.41;4948744;28;20027;-81
2022/12/27 09:56:03;;;;;;;9.48;2.03;;;5.30;99.90;;;3.76;100.00;101354.25;4964568;28;20039;-81
2022/12/27 09:59:16;;;;;;;8.32;2.50;;;5.30;99.90;;;3.73;100.00;101348.19;4947437;28;20823;-82
2022/12/27 10:01:43;;;;;;;5.70;1.80;;;5.30;99.90;;;3.64;100.00;101356.94;4932487;28;20102;-80
2022/12/27 10:04:39;;;;;;;8.57;1.80;;;5.20;99.90;;;3.59;100.00;101361.31;4964998;28;20115;-81
2022/12/27 10:08:03;;;;;;;5.65;1.85;;;5.20;99.90;;;3.46;100.00;101369.22;4965512;28;20168;-80
2022/12/27 10:10:57;;;;;;;7.20;2.00;;;5.10;99.90;;;3.53;100.00;101361.38;4936669;28;20045;-81
2022/12/27 10:13:53;;;;;;;5.20;1.20;;;5.10;99.90;;;3.45;100.00;101359.66;4960338;28;20089;-81
2022/12/27 10:16:35;;;;;;;5.38;1.83;;;5.10;99.90;;;3.52;100.00;101355.31;4964715;28;20062;-80
2022/12/27 10:19:52;;;;;;;6.15;1.48;;;5.10;99.90;;;3.61;100.00;101359.56;4954530;28;20054;-81
2022/12/27 10:22:34;;;;;;;6.23;1.57;;;5.10;99.90;;;3.58;100.00;101364.78;4966042;28;20543;-81
2022/12/27 10:25:20;;;;;;;8.70;2.10;;;5.20;99.90;;;3.61;100.00;101376.06;4951058;28;20374;-81
2022/12/27 10:27:50;;;;;;;7.35;1.73;;;5.20;99.90;;;3.60;100.00;101379.53;4961393;28;20027;-80
2022/12/27 10:30:21;;;;;;;8.02;1.80;;;5.20;99.90;;;3.60;100.00;101386.47;4950377;28;20046;-80
2022/12/27 10:32:52;;;;;;;8.27;1.65;;;5.20;99.90;;;3.58;100.00;101388.22;4932577;28;20836;-81
2022/12/27 10:35:20;;;;;;;8.48;1.75;;;5.20;99.90;;;3.62;100.00;101388.19;4951684;28;20050;-81
2022/12/27 10:37:52;;;;;;;9.07;1.27;;;5.20;99.90;;;3.61;100.00;101381.28;4948052;28;20041;-80
2022/12/27 10:40:37;;;;;;;5.07;1.60;;;5.20;99.90;;;3.69;100.00;101387.28;4963882;28;20061;-80
2022/12/27 10:43:29;;;;;;;7.15;1.88;;;5.30;99.90;;;3.70;100.00;101401.16;4935284;28;20039;-80
2022/12/27 10:46:22;;;;;;;10.68;2.00;;;5.30;99.90;;;3.76;100.00;101403.72;4916105;28;20070;-82
2022/12/27 10:49:19;;;;;;;6.75;1.40;;;5.40;99.90;;;3.82;99.68;101401.09;4940114;28;20046;-80
2022/12/27 10:51:47;;;;;;;8.52;2.00;;;5.30;99.90;;;3.89;99.67;101397.53;4937214;28;20106;-80
2022/12/27 10:54:31;;;;;;;6.15;1.92;;;5.40;99.90;;;4.00;99.91;101391.38;4964567;28;20043;-80
2022/12/27 10:57:26;;;;;;;10.20;2.00;;;5.50;99.90;;;4.04;99.71;101395.66;4934946;28;20018;-80
2022/12/27 11:00:22;;;;;;;8.23;2.00;;;5.60;99.90;;;4.08;99.48;101399.97;4963461;28;20047;-80
2022/12/27 11:03:03;;;;;;;8.35;2.20;;;5.60;99.90;;;4.19;99.39;101395.56;4964037;28;20090;-79
2022/12/27 11:05:35;;;;;;;9.35;2.10;;;5.70;99.90;;;4.24;98.67;101400.72;4960424;28;20031;-80
2022/12/27 11:08:23;;;;;;;9.38;1.70;;;5.70;99.90;;;4.23;98.38;101396.38;4950360;28;20039;-80
2022/12/27 11:11:12;;;;;;;8.95;2.00;;;5.70;99.90;;;4.27;98.06;101405.88;4949417;28;20113;-80
2022/12/27 11:13:42;;;;;;;14.50;2.83;;;5.80;99.90;;;4.28;97.67;101405.88;4952042;28;20035;-80
2022/12/27 11:16:18;;;;;;;6.93;1.90;;;5.80;99.90;;;4.23;97.33;101406.78;4945883;28;20515;-80
2022/12/27 11:18:56;;;;;;;12.98;2.28;;;5.70;99.90;;;4.26;97.70;101418.06;4949338;28;20051;-79
2022/12/27 11:21:44;;;;;;;8.07;1.88;;;;;;;4.40;97.39;101407.50;4965303;28;20054;-80
2022/12/27 11:25:06;;;;;;;11.77;2.42;;;5.90;99.90;;;4.50;97.11;101410.88;4965350;28;20041;-80
2022/12/27 11:27:34;;;;;;;11.93;2.22;;;;;;;4.57;97.25;101422.97;4933274;28;20042;-79
2022/12/27 11:30:01;;;;;;;10.75;2.00;;;6.00;99.90;;;4.54;97.00;101416.94;4965926;28;20483;-79
2022/12/27 11:32:32;;;;;;;8.30;2.10;;;6.00;99.90;;;4.57;96.98;101422.09;4954807;28;20117;-80
2022/12/27 11:35:01;;;;;;;10.65;2.55;;;6.00;99.90;;;4.61;96.68;101423.81;4949851;28;20023;-80
2022/12/27 11:37:27;;;;;;;7.60;1.85;;;6.10;99.90;;;4.62;96.84;101422.91;4930819;28;20031;-80
2022/12/27 11:40:33;;;;;;;9.27;2.20;;;6.10;99.90;;;4.65;96.82;101421.16;4930872;28;20039;-79
2022/12/27 11:43:20;;;;;;;7.93;1.65;;;6.10;99.90;;;4.67;96.76;101423.75;4949387;28;20023;-80
2022/12/27 11:45:54;;;;;;;10.85;2.28;;;6.20;99.90;;;4.65;96.18;101428.13;4948311;28;20071;-79
2022/12/27 11:48:43;;;;;;;9.07;1.38;;;6.10;99.90;;;4.60;96.12;101422.94;4949079;28;20043;-80
2022/12/27 11:51:48;;;;;;;6.20;1.60;;;6.10;99.90;;;4.55;95.72;101434.31;4933303;28;20042;-79
2022/12/27 11:54:25;;;;;;;8.95;1.70;;;6.10;99.90;;;4.58;96.19;101436.88;4965232;28;20030;-80
2022/12/27 11:57:39;;;;;;;8.82;1.23;;;6.10;99.90;;;4.59;96.42;101438.59;4960806;28;20035;-80
2022/12/27 12:00:35;;;;;;;11.25;1.70;;;6.10;99.90;;;4.63;96.24;101454.22;4948467;28;20122;-79
2022/12/27 12:03:16;;;;;;;14.57;1.50;;;;;;;4.69;96.28;101455.91;4959927;28;20011;-81
2022/12/27 12:06:25;;;;;;;13.90;1.63;;;6.20;99.90;;;4.76;96.50;101461.91;4966041;28;20041;-79
2022/12/27 12:09:21;;;;;;;4.93;1.02;;;6.20;99.90;;;4.76;96.02;101460.16;4963041;28;20070;-80
2022/12/27 12:12:22;;;;;;;6.77;1.27;;;6.20;99.90;;;4.83;95.54;101464.44;4962066;28;20798;-80
2022/12/27 12:15:31;;;;;;;7.85;1.60;;;6.30;99.90;;;4.80;95.09;101455.78;4950280;28;20584;-80
2022/12/27 12:18:32;;;;;;;8.25;1.52;;;6.30;99.90;;;4.83;95.33;101459.19;4964733;28;20034;-79
2022/12/27 12:21:26;;;;;;;5.93;1.25;;;6.30;99.90;;;4.82;95.26;101465.31;4964255;28;20559;-79
2022/12/27 12:24:22;;;;;;;9.15;1.40;;;6.40;99.90;;;4.94;94.95;101477.34;4945642;28;20078;-80
2022/12/27 12:27:18;;;;;;;12.48;2.20;;;6.30;99.90;;;4.94;94.69;101474.75;4964517;28;20062;-79
2022/12/27 12:30:10;;;;;;;7.33;1.23;;;6.40;99.90;;;4.98;94.71;101476.44;4949621;28;20037;-79
2022/12/27 12:32:57;;;;;;;5.30;0.90;;;6.40;99.90;;;5.00;94.57;101482.50;4962059;28;20042;-79
2022/12/27 12:35:31;;;;;;;7.45;1.05;;;6.50;99.90;;;5.01;94.44;101486.88;4963301;28;20715;-80
2022/12/27 12:38:28;;;;;;;5.57;1.20;;;6.50;99.90;;;4.96;94.01;101478.19;4964016;28;20109;-79
2022/12/27 12:41:04;;;;;;;;;;;6.50;99.90;;;4.89;93.11;101473.94;4963333;28;20043;-80
2022/12/27 12:43:45;;;;;;;5.22;1.08;;;6.40;99.90;;;4.88;93.08;101477.41;4944183;28;19910;-80
2022/12/27 12:46:31;;;;;;;2.88;0.70;;;6.40;99.90;;;4.78;93.09;101488.84;4951962;28;20035;-80
2022/12/27 12:49:05;;;;;;;3.35;1.45;;;6.30;99.90;;;4.76;93.38;101495.84;4963315;28;20045;-80
2022/12/27 12:52:23;;;;;;;6.47;0.88;;;6.30;99.90;;;4.80;93.88;101492.31;4951147;28;20062;-80
2022/12/27 12:55:36;;;;;;;8.52;0.98;;;6.30;99.90;;;4.72;94.01;101502.81;4944143;28;20715;-80
2022/12/27 12:58:49;;;;;;;8.93;0.98;;;6.30;99.90;;;4.74;93.88;101508.88;4937835;28;20035;-81
2022/12/27 13:02:19;;;;;;;;;;;;;;;;;;;;;
2022/12/27 13:05:36;;;;;;;5.15;0.90;;;6.20;99.90;;;4.60;93.84;101527.28;4961186;28;20491;-80
2022/12/27 13:09:08;;;;;;;6.53;1.00;;;6.10;99.90;;;4.48;94.28;101530.84;4958545;28;20051;-80